sensor_id;sensor_type;location;lat;lon;timestamp;P1;durP1;ratioP1;P2;durP2;ratioP2
18689;SDS011;9782;52.930;15.562;2023-03-24T06:10:07;10.50;;;8.20;;
18689;SDS011;9782;52.930;15.562;2023-03-24T06:12:35;10.93;;;9.03;;
18689;SDS011;9782;52.930;15.562;2023-03-24T06:15:03;8.50;;;6.93;;
18689;SDS011;9782;52.930;15.562;2023-03-24T06:17:31;10.90;;;8.20;;
18689;SDS011;9782;52.930;15.562;2023-03-24T06:19:58;8.77;;;7.17;;
18689;SDS011;9782;52.930;15.562;2023-03-24T06:22:30;7.90;;;6.77;;
18689;SDS011;9782;52.930;15.562;2023-03-24T06:24:58;10.07;;;6.63;;
18689;SDS011;9782;52.930;15.562;2023-03-24T06:27:26;6.90;;;6.20;;
18689;SDS011;9782;52.930;15.562;2023-03-24T06:29:54;9.60;;;7.40;;
18689;SDS011;9782;52.930;15.562;2023-03-24T06:32:21;8.37;;;7.00;;
18689;SDS011;9782;52.930;15.562;2023-03-24T06:34:48;9.13;;;7.03;;
18689;SDS011;9782;52.930;15.562;2023-03-24T06:37:15;6.60;;;5.90;;
18689;SDS011;9782;52.930;15.562;2023-03-24T06:39:43;6.40;;;5.80;;
18689;SDS011;9782;52.930;15.562;2023-03-24T06:42:10;7.27;;;4.93;;
18689;SDS011;9782;52.930;15.562;2023-03-24T06:44:39;5.90;;;4.57;;
18689;SDS011;9782;52.930;15.562;2023-03-24T06:47:06;6.83;;;4.47;;
18689;SDS011;9782;52.930;15.562;2023-03-24T06:49:33;5.90;;;4.10;;
18689;SDS011;9782;52.930;15.562;2023-03-24T06:52:01;4.80;;;4.30;;
18689;SDS011;9782;52.930;15.562;2023-03-24T06:54:28;7.07;;;4.70;;
18689;SDS011;9782;52.930;15.562;2023-03-24T06:56:55;7.07;;;4.43;;
18689;SDS011;9782;52.930;15.562;2023-03-24T06:59:22;6.77;;;5.00;;
18689;SDS011;9782;52.930;15.562;2023-03-24T07:01:51;6.43;;;4.70;;
18689;SDS011;9782;52.930;15.562;2023-03-24T07:04:18;7.20;;;5.40;;
18689;SDS011;9782;52.930;15.562;2023-03-24T07:06:49;6.50;;;5.60;;
18689;SDS011;9782;52.930;15.562;2023-03-24T07:09:16;7.70;;;5.50;;
18689;SDS011;9782;52.930;15.562;2023-03-24T07:11:44;8.80;;;5.30;;
18689;SDS011;9782;52.930;15.562;2023-03-24T07:14:11;5.90;;;4.97;;
18689;SDS011;9782;52.930;15.562;2023-03-24T07:16:38;5.10;;;4.60;;
18689;SDS011;9782;52.930;15.562;2023-03-24T07:19:06;7.47;;;5.10;;
18689;SDS011;9782;52.930;15.562;2023-03-24T07:21:33;5.70;;;4.60;;
18689;SDS011;9782;52.930;15.562;2023-03-24T07:24:00;7.37;;;4.33;;
18689;SDS011;9782;52.930;15.562;2023-03-24T07:26:27;5.53;;;4.67;;
18689;SDS011;9782;52.930;15.562;2023-03-24T07:28:54;9.37;;;7.33;;
18689;SDS011;9782;52.930;15.562;2023-03-24T07:31:21;9.80;;;7.10;;
18689;SDS011;9782;52.930;15.562;2023-03-24T07:33:48;7.47;;;5.63;;
18689;SDS011;9782;52.930;15.562;2023-03-24T07:36:17;5.30;;;4.47;;
18689;SDS011;9782;52.930;15.562;2023-03-24T07:38:44;7.47;;;4.30;;
18689;SDS011;9782;52.930;15.562;2023-03-24T07:41:11;6.57;;;4.20;;
18689;SDS011;9782;52.930;15.562;2023-03-24T07:43:38;7.00;;;4.00;;
18689;SDS011;9782;52.930;15.562;2023-03-24T07:46:05;5.23;;;4.30;;
18689;SDS011;9782;52.930;15.562;2023-03-24T07:48:32;6.65;;;3.60;;
18689;SDS011;9782;52.930;15.562;2023-03-24T07:50:59;5.78;;;3.70;;
18689;SDS011;9782;52.930;15.562;2023-03-24T07:53:27;6.75;;;4.32;;
18689;SDS011;9782;52.930;15.562;2023-03-24T07:55:54;4.88;;;3.78;;
18689;SDS011;9782;52.930;15.562;2023-03-24T07:58:21;6.15;;;4.72;;
18689;SDS011;9782;52.930;15.562;2023-03-24T08:00:48;4.80;;;4.30;;
18689;SDS011;9782;52.930;15.562;2023-03-24T08:03:15;4.93;;;3.73;;
18689;SDS011;9782;52.930;15.562;2023-03-24T08:05:42;5.93;;;4.37;;
18689;SDS011;9782;52.930;15.562;2023-03-24T08:08:10;6.83;;;4.03;;
18689;SDS011;9782;52.930;15.562;2023-03-24T08:10:38;5.13;;;4.17;;
18689;SDS011;9782;52.930;15.562;2023-03-24T08:13:06;5.83;;;4.43;;
18689;SDS011;9782;52.930;15.562;2023-03-24T08:15:33;6.60;;;4.37;;
18689;SDS011;9782;52.930;15.562;2023-03-24T08:18:02;5.87;;;4.00;;
18689;SDS011;9782;52.930;15.562;2023-03-24T08:20:29;7.43;;;3.80;;
18689;SDS011;9782;52.930;15.562;2023-03-24T08:22:56;4.80;;;4.10;;
18689;SDS011;9782;52.930;15.562;2023-03-24T08:25:25;7.50;;;4.30;;
18689;SDS011;9782;52.930;15.562;2023-03-24T08:27:53;5.03;;;3.72;;
18689;SDS011;9782;52.930;15.562;2023-03-24T08:30:21;5.70;;;3.97;;
18689;SDS011;9782;52.930;15.562;2023-03-24T08:32:49;5.20;;;3.80;;
18689;SDS011;9782;52.930;15.562;2023-03-24T08:35:19;5.93;;;3.83;;
18689;SDS011;9782;52.930;15.562;2023-03-24T08:37:48;6.97;;;4.00;;
18689;SDS011;9782;52.930;15.562;2023-03-24T08:40:16;4.00;;;3.17;;
18689;SDS011;9782;52.930;15.562;2023-03-24T08:42:47;3.65;;;3.33;;
18689;SDS011;9782;52.930;15.562;2023-03-24T08:45:17;5.68;;;3.65;;
18689;SDS011;9782;52.930;15.562;2023-03-24T08:47:46;4.55;;;3.60;;
18689;SDS011;9782;52.930;15.562;2023-03-24T08:50:14;5.32;;;3.75;;
18689;SDS011;9782;52.930;15.562;2023-03-24T08:52:41;4.72;;;3.75;;
18689;SDS011;9782;52.930;15.562;2023-03-24T08:55:12;5.88;;;4.00;;
18689;SDS011;9782;52.930;15.562;2023-03-24T08:57:39;5.05;;;3.78;;
18689;SDS011;9782;52.930;15.562;2023-03-24T09:00:06;4.38;;;3.47;;
18689;SDS011;9782;52.930;15.562;2023-03-24T09:02:40;6.53;;;3.88;;
18689;SDS011;9782;52.930;15.562;2023-03-24T09:05:07;4.38;;;3.67;;
18689;SDS011;9782;52.930;15.562;2023-03-24T09:07:35;3.53;;;3.10;;
18689;SDS011;9782;52.930;15.562;2023-03-24T09:10:03;3.85;;;3.05;;
18689;SDS011;9782;52.930;15.562;2023-03-24T09:12:31;3.95;;;3.00;;
18689;SDS011;9782;52.930;15.562;2023-03-24T09:14:58;5.38;;;2.75;;
18689;SDS011;9782;52.930;15.562;2023-03-24T09:17:25;4.07;;;3.42;;
18689;SDS011;9782;52.930;15.562;2023-03-24T09:19:53;6.47;;;3.60;;
18689;SDS011;9782;52.930;15.562;2023-03-24T09:22:20;3.80;;;3.40;;
18689;SDS011;9782;52.930;15.562;2023-03-24T09:24:47;4.68;;;3.28;;
18689;SDS011;9782;52.930;15.562;2023-03-24T09:27:16;4.43;;;2.90;;
18689;SDS011;9782;52.930;15.562;2023-03-24T09:29:43;4.40;;;3.30;;
18689;SDS011;9782;52.930;15.562;2023-03-24T09:32:10;4.13;;;3.47;;
18689;SDS011;9782;52.930;15.562;2023-03-24T09:34:37;5.40;;;2.80;;
18689;SDS011;9782;52.930;15.562;2023-03-24T09:37:05;3.65;;;2.72;;
18689;SDS011;9782;52.930;15.562;2023-03-24T09:39:34;3.47;;;2.90;;
18689;SDS011;9782;52.930;15.562;2023-03-24T09:42:02;3.47;;;2.85;;
18689;SDS011;9782;52.930;15.562;2023-03-24T09:44:30;5.65;;;3.40;;
18689;SDS011;9782;52.930;15.562;2023-03-24T09:47:02;4.60;;;3.28;;
18689;SDS011;9782;52.930;15.562;2023-03-24T09:49:37;5.20;;;3.05;;
18689;SDS011;9782;52.930;15.562;2023-03-24T09:52:10;6.57;;;3.28;;
18689;SDS011;9782;52.930;15.562;2023-03-24T09:54:40;12.38;;;6.28;;
18689;SDS011;9782;52.930;15.562;2023-03-24T09:57:15;8.18;;;5.78;;
18689;SDS011;9782;52.930;15.562;2023-03-24T09:59:46;13.00;;;5.57;;
18689;SDS011;9782;52.930;15.562;2023-03-24T10:02:13;8.48;;;5.80;;
18689;SDS011;9782;52.930;15.562;2023-03-24T10:04:42;7.60;;;4.80;;
18689;SDS011;9782;52.930;15.562;2023-03-24T10:07:14;8.27;;;5.85;;
18689;SDS011;9782;52.930;15.562;2023-03-24T10:09:44;10.38;;;6.18;;
18689;SDS011;9782;52.930;15.562;2023-03-24T10:12:18;10.20;;;6.78;;
18689;SDS011;9782;52.930;15.562;2023-03-24T10:14:55;8.85;;;5.93;;
18689;SDS011;9782;52.930;15.562;2023-03-24T10:17:32;7.47;;;6.68;;
18689;SDS011;9782;52.930;15.562;2023-03-24T10:20:10;7.00;;;5.60;;
18689;SDS011;9782;52.930;15.562;2023-03-24T10:22:49;5.50;;;4.40;;
18689;SDS011;9782;52.930;15.562;2023-03-24T10:25:25;9.90;;;6.25;;
18689;SDS011;9782;52.930;15.562;2023-03-24T10:28:02;7.35;;;5.35;;
18689;SDS011;9782;52.930;15.562;2023-03-24T10:30:38;5.47;;;4.68;;
18689;SDS011;9782;52.930;15.562;2023-03-24T10:33:08;4.55;;;4.00;;
18689;SDS011;9782;52.930;15.562;2023-03-24T10:35:36;6.28;;;4.25;;
18689;SDS011;9782;52.930;15.562;2023-03-24T10:38:11;10.45;;;4.90;;
18689;SDS011;9782;52.930;15.562;2023-03-24T10:40:41;7.35;;;4.22;;
18689;SDS011;9782;52.930;15.562;2023-03-24T10:43:10;8.35;;;4.70;;
18689;SDS011;9782;52.930;15.562;2023-03-24T10:45:38;6.28;;;4.80;;
18689;SDS011;9782;52.930;15.562;2023-03-24T10:48:09;6.65;;;4.47;;
18689;SDS011;9782;52.930;15.562;2023-03-24T10:50:40;6.15;;;4.90;;
18689;SDS011;9782;52.930;15.562;2023-03-24T10:53:16;7.82;;;4.40;;
18689;SDS011;9782;52.930;15.562;2023-03-24T10:55:44;6.05;;;4.90;;
18689;SDS011;9782;52.930;15.562;2023-03-24T10:58:15;8.25;;;5.22;;
18689;SDS011;9782;52.930;15.562;2023-03-24T11:00:46;6.65;;;5.35;;
18689;SDS011;9782;52.930;15.562;2023-03-24T11:03:15;7.07;;;4.93;;
18689;SDS011;9782;52.930;15.562;2023-03-24T11:05:47;10.75;;;7.60;;
18689;SDS011;9782;52.930;15.562;2023-03-24T11:08:22;11.07;;;7.60;;
18689;SDS011;9782;52.930;15.562;2023-03-24T11:10:52;6.90;;;5.25;;
18689;SDS011;9782;52.930;15.562;2023-03-24T11:13:25;6.50;;;5.18;;
18689;SDS011;9782;52.930;15.562;2023-03-24T11:15:55;7.13;;;5.72;;
18689;SDS011;9782;52.930;15.562;2023-03-24T11:18:30;7.53;;;5.20;;
18689;SDS011;9782;52.930;15.562;2023-03-24T11:20:57;6.53;;;5.30;;
18689;SDS011;9782;52.930;15.562;2023-03-24T11:23:30;6.53;;;4.90;;
18689;SDS011;9782;52.930;15.562;2023-03-24T11:26:03;6.60;;;5.90;;
18689;SDS011;9782;52.930;15.562;2023-03-24T11:28:34;5.85;;;4.53;;
18689;SDS011;9782;52.930;15.562;2023-03-24T11:31:05;5.30;;;4.75;;
18689;SDS011;9782;52.930;15.562;2023-03-24T11:33:34;9.18;;;5.78;;
18689;SDS011;9782;52.930;15.562;2023-03-24T11:39:12;5.80;;;4.80;;
18689;SDS011;9782;52.930;15.562;2023-03-24T11:41:43;7.57;;;6.07;;
18689;SDS011;9782;52.930;15.562;2023-03-24T11:44:18;6.40;;;5.10;;
18689;SDS011;9782;52.930;15.562;2023-03-24T11:46:47;7.05;;;5.10;;
18689;SDS011;9782;52.930;15.562;2023-03-24T11:49:18;8.82;;;5.75;;
18689;SDS011;9782;52.930;15.562;2023-03-24T11:51:49;7.38;;;5.13;;
18689;SDS011;9782;52.930;15.562;2023-03-24T11:54:20;6.60;;;4.78;;
18689;SDS011;9782;52.930;15.562;2023-03-24T11:56:50;7.82;;;6.00;;
18689;SDS011;9782;52.930;15.562;2023-03-24T11:59:23;7.63;;;5.57;;
18689;SDS011;9782;52.930;15.562;2023-03-24T12:02:00;5.72;;;4.50;;
18689;SDS011;9782;52.930;15.562;2023-03-24T12:04:40;5.50;;;4.55;;
18689;SDS011;9782;52.930;15.562;2023-03-24T12:10:22;6.20;;;4.90;;
18689;SDS011;9782;52.930;15.562;2023-03-24T12:12:58;12.02;;;7.95;;
18689;SDS011;9782;52.930;15.562;2023-03-24T12:15:35;18.90;;;13.00;;
18689;SDS011;9782;52.930;15.562;2023-03-24T12:18:18;18.95;;;14.45;;
18689;SDS011;9782;52.930;15.562;2023-03-24T12:21:02;9.48;;;7.15;;
18689;SDS011;9782;52.930;15.562;2023-03-24T12:23:38;7.43;;;5.38;;
18689;SDS011;9782;52.930;15.562;2023-03-24T12:26:17;6.20;;;5.13;;
18689;SDS011;9782;52.930;15.562;2023-03-24T12:28:50;5.80;;;4.55;;
18689;SDS011;9782;52.930;15.562;2023-03-24T12:34:28;5.78;;;4.80;;
18689;SDS011;9782;52.930;15.562;2023-03-24T12:37:07;5.95;;;4.10;;
18689;SDS011;9782;52.930;15.562;2023-03-24T12:39:42;5.07;;;4.28;;
18689;SDS011;9782;52.930;15.562;2023-03-24T12:42:18;5.38;;;4.80;;
18689;SDS011;9782;52.930;15.562;2023-03-24T12:50:45;5.57;;;4.68;;
18689;SDS011;9782;52.930;15.562;2023-03-24T12:53:21;6.68;;;4.80;;
18689;SDS011;9782;52.930;15.562;2023-03-24T12:56:02;6.25;;;4.50;;
18689;SDS011;9782;52.930;15.562;2023-03-24T12:58:37;6.05;;;4.82;;
18689;SDS011;9782;52.930;15.562;2023-03-24T13:01:09;7.22;;;4.50;;
18689;SDS011;9782;52.930;15.562;2023-03-24T13:03:42;4.78;;;4.15;;
18689;SDS011;9782;52.930;15.562;2023-03-24T13:06:15;9.77;;;6.20;;
18689;SDS011;9782;52.930;15.562;2023-03-24T13:08:46;7.00;;;5.78;;
18689;SDS011;9782;52.930;15.562;2023-03-24T13:11:23;11.85;;;5.97;;
18689;SDS011;9782;52.930;15.562;2023-03-24T13:13:57;6.22;;;3.85;;
18689;SDS011;9782;52.930;15.562;2023-03-24T13:16:29;6.07;;;4.45;;
18689;SDS011;9782;52.930;15.562;2023-03-24T13:18:58;5.13;;;4.50;;
18689;SDS011;9782;52.930;15.562;2023-03-24T13:21:27;5.70;;;4.20;;
18689;SDS011;9782;52.930;15.562;2023-03-24T13:23:59;6.22;;;4.22;;
18689;SDS011;9782;52.930;15.562;2023-03-24T13:26:34;7.63;;;5.28;;
18689;SDS011;9782;52.930;15.562;2023-03-24T13:29:09;5.50;;;4.18;;
18689;SDS011;9782;52.930;15.562;2023-03-24T13:31:43;7.57;;;4.70;;
18689;SDS011;9782;52.930;15.562;2023-03-24T13:34:16;7.38;;;5.47;;
18689;SDS011;9782;52.930;15.562;2023-03-24T13:36:50;4.80;;;4.22;;
18689;SDS011;9782;52.930;15.562;2023-03-24T13:39:21;3.95;;;3.53;;
18689;SDS011;9782;52.930;15.562;2023-03-24T13:41:51;4.90;;;4.10;;
18689;SDS011;9782;52.930;15.562;2023-03-24T13:44:22;13.63;;;4.82;;
18689;SDS011;9782;52.930;15.562;2023-03-24T13:46:58;7.28;;;4.53;;
18689;SDS011;9782;52.930;15.562;2023-03-24T13:49:31;15.30;;;6.30;;
18689;SDS011;9782;52.930;15.562;2023-03-24T13:52:01;8.07;;;4.10;;
18689;SDS011;9782;52.930;15.562;2023-03-24T13:54:30;4.72;;;4.13;;
18689;SDS011;9782;52.930;15.562;2023-03-24T13:57:02;5.55;;;4.82;;
18689;SDS011;9782;52.930;15.562;2023-03-24T13:59:38;9.07;;;4.90;;
18689;SDS011;9782;52.930;15.562;2023-03-24T14:02:10;8.70;;;4.32;;
18689;SDS011;9782;52.930;15.562;2023-03-24T14:04:44;8.38;;;4.05;;
18689;SDS011;9782;52.930;15.562;2023-03-24T14:07:29;7.38;;;4.38;;
18689;SDS011;9782;52.930;15.562;2023-03-24T14:13:17;5.25;;;3.30;;
18689;SDS011;9782;52.930;15.562;2023-03-24T14:19:16;15.88;;;3.88;;
18689;SDS011;9782;52.930;15.562;2023-03-24T14:22:03;6.57;;;4.63;;
18689;SDS011;9782;52.930;15.562;2023-03-24T14:24:37;5.75;;;4.60;;
18689;SDS011;9782;52.930;15.562;2023-03-24T14:30:01;8.18;;;3.83;;
18689;SDS011;9782;52.930;15.562;2023-03-24T14:32:38;5.63;;;3.20;;
18689;SDS011;9782;52.930;15.562;2023-03-24T14:35:19;4.10;;;3.00;;
18689;SDS011;9782;52.930;15.562;2023-03-24T14:37:51;6.40;;;3.08;;
18689;SDS011;9782;52.930;15.562;2023-03-24T14:40:24;7.10;;;4.05;;
18689;SDS011;9782;52.930;15.562;2023-03-24T14:42:54;4.20;;;2.90;;
18689;SDS011;9782;52.930;15.562;2023-03-24T14:45:38;7.22;;;3.85;;
18689;SDS011;9782;52.930;15.562;2023-03-24T14:48:16;5.05;;;3.10;;
18689;SDS011;9782;52.930;15.562;2023-03-24T14:54:00;6.43;;;3.30;;
18689;SDS011;9782;52.930;15.562;2023-03-24T14:56:30;5.13;;;3.13;;
18689;SDS011;9782;52.930;15.562;2023-03-24T14:59:04;4.88;;;3.30;;
18689;SDS011;9782;52.930;15.562;2023-03-24T15:01:36;4.38;;;3.20;;
18689;SDS011;9782;52.930;15.562;2023-03-24T15:04:04;3.72;;;3.10;;
18689;SDS011;9782;52.930;15.562;2023-03-24T15:06:36;4.15;;;3.20;;
18689;SDS011;9782;52.930;15.562;2023-03-24T15:09:14;6.35;;;3.30;;
18689;SDS011;9782;52.930;15.562;2023-03-24T15:11:43;3.33;;;2.83;;
18689;SDS011;9782;52.930;15.562;2023-03-24T15:14:14;4.63;;;3.08;;
18689;SDS011;9782;52.930;15.562;2023-03-24T15:16:51;5.13;;;3.97;;
18689;SDS011;9782;52.930;15.562;2023-03-24T15:19:21;7.32;;;5.03;;
18689;SDS011;9782;52.930;15.562;2023-03-24T15:21:57;4.78;;;3.30;;
18689;SDS011;9782;52.930;15.562;2023-03-24T15:24:27;6.70;;;3.78;;
18689;SDS011;9782;52.930;15.562;2023-03-24T15:27:09;5.95;;;3.95;;
18689;SDS011;9782;52.930;15.562;2023-03-24T15:29:43;6.13;;;4.50;;
18689;SDS011;9782;52.930;15.562;2023-03-24T15:32:14;3.97;;;3.45;;
18689;SDS011;9782;52.930;15.562;2023-03-24T15:34:46;4.53;;;3.50;;
18689;SDS011;9782;52.930;15.562;2023-03-24T15:37:20;9.85;;;5.30;;
18689;SDS011;9782;52.930;15.562;2023-03-24T15:39:49;11.82;;;6.80;;
18689;SDS011;9782;52.930;15.562;2023-03-24T15:42:17;9.27;;;6.00;;
18689;SDS011;9782;52.930;15.562;2023-03-24T15:44:47;8.43;;;4.75;;
18689;SDS011;9782;52.930;15.562;2023-03-24T15:47:16;13.93;;;7.85;;
18689;SDS011;9782;52.930;15.562;2023-03-24T15:49:49;2.30;;;1.70;;
18689;SDS011;9782;52.930;15.562;2023-03-24T15:52:25;5.10;;;3.50;;
18689;SDS011;9782;52.930;15.562;2023-03-24T15:54:55;6.88;;;4.15;;
18689;SDS011;9782;52.930;15.562;2023-03-24T15:57:25;8.60;;;4.45;;
18689;SDS011;9782;52.930;15.562;2023-03-24T16:00:04;7.80;;;5.03;;
18689;SDS011;9782;52.930;15.562;2023-03-24T16:02:41;9.52;;;5.60;;
18689;SDS011;9782;52.930;15.562;2023-03-24T16:05:13;4.95;;;3.83;;
18689;SDS011;9782;52.930;15.562;2023-03-24T16:07:51;3.13;;;2.58;;
18689;SDS011;9782;52.930;15.562;2023-03-24T16:10:26;6.80;;;3.83;;
18689;SDS011;9782;52.930;15.562;2023-03-24T16:12:57;11.35;;;5.05;;
18689;SDS011;9782;52.930;15.562;2023-03-24T16:15:31;9.00;;;3.97;;
18689;SDS011;9782;52.930;15.562;2023-03-24T16:17:58;5.13;;;3.10;;
18689;SDS011;9782;52.930;15.562;2023-03-24T16:20:25;5.43;;;3.65;;
18689;SDS011;9782;52.930;15.562;2023-03-24T16:22:54;8.00;;;4.65;;
18689;SDS011;9782;52.930;15.562;2023-03-24T16:25:22;5.93;;;3.83;;
18689;SDS011;9782;52.930;15.562;2023-03-24T16:27:49;5.07;;;3.50;;
18689;SDS011;9782;52.930;15.562;2023-03-24T16:30:16;3.58;;;3.10;;
18689;SDS011;9782;52.930;15.562;2023-03-24T16:32:45;6.82;;;4.28;;
18689;SDS011;9782;52.930;15.562;2023-03-24T16:35:12;5.82;;;3.75;;
18689;SDS011;9782;52.930;15.562;2023-03-24T16:37:39;11.70;;;5.40;;
18689;SDS011;9782;52.930;15.562;2023-03-24T16:40:13;6.57;;;4.53;;
18689;SDS011;9782;52.930;15.562;2023-03-24T16:42:47;5.60;;;3.53;;
18689;SDS011;9782;52.930;15.562;2023-03-24T16:45:14;5.90;;;4.00;;
18689;SDS011;9782;52.930;15.562;2023-03-24T16:47:41;6.30;;;4.10;;
18689;SDS011;9782;52.930;15.562;2023-03-24T16:50:20;7.13;;;4.20;;
18689;SDS011;9782;52.930;15.562;2023-03-24T16:52:54;6.07;;;3.67;;
18689;SDS011;9782;52.930;15.562;2023-03-24T16:55:23;7.60;;;4.00;;
18689;SDS011;9782;52.930;15.562;2023-03-24T16:57:50;5.63;;;4.23;;
18689;SDS011;9782;52.930;15.562;2023-03-24T17:00:17;6.70;;;4.80;;
18689;SDS011;9782;52.930;15.562;2023-03-24T17:02:44;6.77;;;4.60;;
18689;SDS011;9782;52.930;15.562;2023-03-24T17:05:17;6.77;;;4.87;;
18689;SDS011;9782;52.930;15.562;2023-03-24T17:07:47;7.33;;;4.13;;
18689;SDS011;9782;52.930;15.562;2023-03-24T17:10:14;7.37;;;4.30;;
18689;SDS011;9782;52.930;15.562;2023-03-24T17:12:43;11.23;;;4.57;;
18689;SDS011;9782;52.930;15.562;2023-03-24T17:15:13;8.00;;;4.50;;
18689;SDS011;9782;52.930;15.562;2023-03-24T17:17:44;12.07;;;9.33;;
18689;SDS011;9782;52.930;15.562;2023-03-24T17:20:11;12.73;;;9.60;;
18689;SDS011;9782;52.930;15.562;2023-03-24T17:22:39;9.87;;;5.70;;
18689;SDS011;9782;52.930;15.562;2023-03-24T17:25:08;12.10;;;7.00;;
18689;SDS011;9782;52.930;15.562;2023-03-24T17:27:36;10.67;;;7.17;;
18689;SDS011;9782;52.930;15.562;2023-03-24T17:30:05;13.30;;;8.97;;
18689;SDS011;9782;52.930;15.562;2023-03-24T17:32:33;15.47;;;10.03;;
18689;SDS011;9782;52.930;15.562;2023-03-24T17:35:00;16.10;;;11.17;;
18689;SDS011;9782;52.930;15.562;2023-03-24T17:37:27;33.53;;;19.97;;
18689;SDS011;9782;52.930;15.562;2023-03-24T17:39:55;26.33;;;15.80;;
18689;SDS011;9782;52.930;15.562;2023-03-24T17:42:23;20.63;;;15.47;;
18689;SDS011;9782;52.930;15.562;2023-03-24T17:44:51;18.13;;;12.00;;
18689;SDS011;9782;52.930;15.562;2023-03-24T17:47:20;15.80;;;10.13;;
18689;SDS011;9782;52.930;15.562;2023-03-24T17:49:47;19.93;;;16.23;;
18689;SDS011;9782;52.930;15.562;2023-03-24T17:52:14;13.73;;;11.30;;
18689;SDS011;9782;52.930;15.562;2023-03-24T17:54:41;17.67;;;12.30;;
18689;SDS011;9782;52.930;15.562;2023-03-24T17:57:08;25.20;;;14.50;;
18689;SDS011;9782;52.930;15.562;2023-03-24T17:59:35;16.00;;;11.50;;
18689;SDS011;9782;52.930;15.562;2023-03-24T18:02:02;28.43;;;17.03;;
18689;SDS011;9782;52.930;15.562;2023-03-24T18:04:31;30.80;;;20.10;;
18689;SDS011;9782;52.930;15.562;2023-03-24T18:06:59;25.87;;;18.07;;
18689;SDS011;9782;52.930;15.562;2023-03-24T18:09:26;23.00;;;15.27;;
18689;SDS011;9782;52.930;15.562;2023-03-24T18:11:56;16.37;;;12.17;;
18689;SDS011;9782;52.930;15.562;2023-03-24T18:14:23;23.80;;;14.67;;
18689;SDS011;9782;52.930;15.562;2023-03-24T18:16:51;23.80;;;16.13;;
18689;SDS011;9782;52.930;15.562;2023-03-24T18:19:18;26.33;;;16.70;;
18689;SDS011;9782;52.930;15.562;2023-03-24T18:21:46;22.50;;;14.40;;
18689;SDS011;9782;52.930;15.562;2023-03-24T18:24:13;23.53;;;15.00;;
18689;SDS011;9782;52.930;15.562;2023-03-24T18:26:40;26.67;;;15.17;;
18689;SDS011;9782;52.930;15.562;2023-03-24T18:29:07;21.20;;;15.03;;
18689;SDS011;9782;52.930;15.562;2023-03-24T18:31:35;23.33;;;16.23;;
18689;SDS011;9782;52.930;15.562;2023-03-24T18:34:02;17.50;;;12.67;;
18689;SDS011;9782;52.930;15.562;2023-03-24T18:36:29;17.47;;;12.03;;
18689;SDS011;9782;52.930;15.562;2023-03-24T18:38:58;24.13;;;16.50;;
18689;SDS011;9782;52.930;15.562;2023-03-24T18:41:27;20.03;;;15.60;;
18689;SDS011;9782;52.930;15.562;2023-03-24T18:43:55;18.33;;;13.13;;
18689;SDS011;9782;52.930;15.562;2023-03-24T18:46:23;16.93;;;11.50;;
18689;SDS011;9782;52.930;15.562;2023-03-24T18:48:51;14.87;;;10.33;;
18689;SDS011;9782;52.930;15.562;2023-03-24T18:51:18;19.80;;;11.27;;
18689;SDS011;9782;52.930;15.562;2023-03-24T18:53:45;19.17;;;10.57;;
18689;SDS011;9782;52.930;15.562;2023-03-24T18:56:14;17.17;;;11.83;;
18689;SDS011;9782;52.930;15.562;2023-03-24T18:58:41;18.87;;;11.50;;
18689;SDS011;9782;52.930;15.562;2023-03-24T19:01:11;22.43;;;11.83;;
18689;SDS011;9782;52.930;15.562;2023-03-24T19:03:39;20.30;;;11.37;;
18689;SDS011;9782;52.930;15.562;2023-03-24T19:06:09;22.13;;;11.83;;
18689;SDS011;9782;52.930;15.562;2023-03-24T19:08:38;21.03;;;12.93;;
18689;SDS011;9782;52.930;15.562;2023-03-24T19:11:07;22.83;;;13.67;;
18689;SDS011;9782;52.930;15.562;2023-03-24T19:13:36;17.77;;;11.90;;
18689;SDS011;9782;52.930;15.562;2023-03-24T19:16:04;21.27;;;12.97;;
18689;SDS011;9782;52.930;15.562;2023-03-24T19:18:33;15.47;;;10.40;;
18689;SDS011;9782;52.930;15.562;2023-03-24T19:21:00;19.57;;;11.03;;
18689;SDS011;9782;52.930;15.562;2023-03-24T19:23:27;22.27;;;12.13;;
18689;SDS011;9782;52.930;15.562;2023-03-24T19:25:55;16.43;;;10.70;;
18689;SDS011;9782;52.930;15.562;2023-03-24T19:28:22;12.80;;;9.47;;
18689;SDS011;9782;52.930;15.562;2023-03-24T19:30:54;15.93;;;11.50;;
18689;SDS011;9782;52.930;15.562;2023-03-24T19:33:21;14.77;;;11.80;;
18689;SDS011;9782;52.930;15.562;2023-03-24T19:35:49;17.23;;;11.50;;
18689;SDS011;9782;52.930;15.562;2023-03-24T19:38:16;29.40;;;20.03;;
18689;SDS011;9782;52.930;15.562;2023-03-24T19:40:46;33.13;;;25.83;;
18689;SDS011;9782;52.930;15.562;2023-03-24T19:43:13;38.23;;;29.77;;
18689;SDS011;9782;52.930;15.562;2023-03-24T19:45:40;29.50;;;22.53;;
18689;SDS011;9782;52.930;15.562;2023-03-24T19:48:08;22.17;;;14.43;;
18689;SDS011;9782;52.930;15.562;2023-03-24T19:50:36;18.17;;;13.17;;
18689;SDS011;9782;52.930;15.562;2023-03-24T19:53:03;17.07;;;13.43;;
18689;SDS011;9782;52.930;15.562;2023-03-24T19:55:30;16.60;;;11.93;;
18689;SDS011;9782;52.930;15.562;2023-03-24T19:57:57;17.77;;;11.37;;
18689;SDS011;9782;52.930;15.562;2023-03-24T20:00:24;17.43;;;10.77;;
18689;SDS011;9782;52.930;15.562;2023-03-24T20:02:51;20.30;;;13.10;;
18689;SDS011;9782;52.930;15.562;2023-03-24T20:05:19;21.37;;;14.00;;
18689;SDS011;9782;52.930;15.562;2023-03-24T20:07:46;15.40;;;11.60;;
18689;SDS011;9782;52.930;15.562;2023-03-24T20:10:14;17.63;;;11.77;;
18689;SDS011;9782;52.930;15.562;2023-03-24T20:12:41;16.97;;;11.27;;
18689;SDS011;9782;52.930;15.562;2023-03-24T20:15:08;16.13;;;8.97;;
18689;SDS011;9782;52.930;15.562;2023-03-24T20:17:35;13.37;;;8.40;;
18689;SDS011;9782;52.930;15.562;2023-03-24T20:20:03;11.77;;;7.37;;
18689;SDS011;9782;52.930;15.562;2023-03-24T20:22:33;12.13;;;8.53;;
18689;SDS011;9782;52.930;15.562;2023-03-24T20:25:00;13.40;;;9.40;;
18689;SDS011;9782;52.930;15.562;2023-03-24T20:27:28;10.77;;;8.03;;
18689;SDS011;9782;52.930;15.562;2023-03-24T20:29:56;10.23;;;6.83;;
18689;SDS011;9782;52.930;15.562;2023-03-24T20:32:23;13.30;;;6.67;;
18689;SDS011;9782;52.930;15.562;2023-03-24T20:34:50;11.53;;;7.20;;
18689;SDS011;9782;52.930;15.562;2023-03-24T20:37:18;15.37;;;8.90;;
18689;SDS011;9782;52.930;15.562;2023-03-24T20:39:46;18.03;;;11.17;;
18689;SDS011;9782;52.930;15.562;2023-03-24T20:42:13;17.47;;;11.27;;
18689;SDS011;9782;52.930;15.562;2023-03-24T20:44:42;15.30;;;9.13;;
18689;SDS011;9782;52.930;15.562;2023-03-24T20:47:09;11.20;;;8.60;;
18689;SDS011;9782;52.930;15.562;2023-03-24T20:49:36;11.60;;;7.97;;
18689;SDS011;9782;52.930;15.562;2023-03-24T20:52:03;14.50;;;8.40;;
18689;SDS011;9782;52.930;15.562;2023-03-24T20:54:30;12.47;;;8.60;;
18689;SDS011;9782;52.930;15.562;2023-03-24T20:56:58;20.50;;;10.60;;
18689;SDS011;9782;52.930;15.562;2023-03-24T20:59:26;12.17;;;8.33;;
18689;SDS011;9782;52.930;15.562;2023-03-24T21:01:53;14.30;;;8.63;;
18689;SDS011;9782;52.930;15.562;2023-03-24T21:04:22;13.30;;;9.40;;
18689;SDS011;9782;52.930;15.562;2023-03-24T21:06:49;12.97;;;9.23;;
18689;SDS011;9782;52.930;15.562;2023-03-24T21:09:18;17.17;;;11.00;;
18689;SDS011;9782;52.930;15.562;2023-03-24T21:11:46;16.07;;;9.90;;
18689;SDS011;9782;52.930;15.562;2023-03-24T21:14:14;15.53;;;10.07;;
18689;SDS011;9782;52.930;15.562;2023-03-24T21:16:41;13.97;;;9.67;;
18689;SDS011;9782;52.930;15.562;2023-03-24T21:19:08;12.80;;;8.80;;
18689;SDS011;9782;52.930;15.562;2023-03-24T21:21:35;16.63;;;8.87;;
18689;SDS011;9782;52.930;15.562;2023-03-24T21:24:03;15.53;;;9.43;;
18689;SDS011;9782;52.930;15.562;2023-03-24T21:26:30;12.13;;;8.40;;
18689;SDS011;9782;52.930;15.562;2023-03-24T21:28:57;18.70;;;8.63;;
18689;SDS011;9782;52.930;15.562;2023-03-24T21:31:26;15.07;;;9.40;;
18689;SDS011;9782;52.930;15.562;2023-03-24T21:33:54;17.53;;;8.93;;